Time;durP1;ratioP1;P1;durP2;ratioP2;P2;SDS_P1;SDS_P2;PMS_P1;PMS_P2;Temp;Humidity;BMP_temperature;BMP_pressure;BME280_temperature;BME280_humidity;BME280_pressure;Samples;Min_cycle;Max_cycle;Signal;HPM_P1;HPM_P2
2023/09/16 00:00:16;;;;;;;1715.60;999.90;;;;;;;25.52;62.66;98442.56;5038697;27;103208;-64
2023/09/16 00:02:49;;;;;;;1526.88;999.90;;;;;;;25.46;61.21;98446.09;5036069;27;102809;-64
2023/09/16 00:05:17;;;;;;;1626.33;999.90;;;;;;;25.13;61.98;98456.13;5037243;27;103726;-65
2023/09/16 00:07:49;;;;;;;1830.13;999.90;;;;;;;25.08;63.93;98442.41;5039243;27;103247;-64
2023/09/16 00:10:17;;;;;;;1754.15;999.90;;;;;;;25.57;61.03;98453.59;5035724;27;104241;-65
2023/09/16 00:12:45;;;;;;;1598.38;999.90;;;;;;;26.00;59.41;98453.03;5035792;27;103019;-65
2023/09/16 00:15:13;;;;;;;1462.60;999.90;;;;;;;25.83;59.30;98448.09;5039048;27;102808;-64
2023/09/16 00:17:41;;;;;;;1669.75;999.90;;;;;;;25.80;60.33;98445.81;5036426;27;103120;-65
2023/09/16 00:20:14;;;;;;;1496.30;999.90;;;;;;;25.76;58.45;98441.91;5039588;27;103539;-65
2023/09/16 00:22:43;;;;;;;1442.10;999.90;;;;;;;26.20;57.90;98451.09;5038593;27;102643;-65
2023/09/16 00:25:12;;;;;;;1468.55;999.90;;;;;;;26.18;57.41;98453.19;5039558;27;104030;-65
2023/09/16 00:27:40;;;;;;;1388.55;999.90;;;;;;;26.42;56.12;98457.84;5037939;27;104305;-64
2023/09/16 00:30:11;;;;;;;1456.13;999.90;;;;;;;24.87;60.27;98451.56;5038983;27;103322;-65
2023/09/16 00:32:39;;;;;;;1892.67;999.90;;;;;;;24.25;65.45;98456.44;5052954;27;102899;-64
2023/09/16 00:35:08;;;;;;;1819.17;999.90;;;;;;;25.52;60.54;98439.03;5037020;27;102973;-64
2023/09/16 00:37:36;;;;;;;1636.65;999.90;;;;;;;25.69;58.79;98441.06;5030117;27;104260;-64
2023/09/16 00:40:07;;;;;;;1563.97;999.90;;;;;;;25.88;57.60;98445.59;5043405;27;103259;-64
2023/09/16 00:42:38;;;;;;;1412.10;999.90;;;;;;;26.23;56.36;98447.97;5038424;27;102972;-64
2023/09/16 00:45:10;;;;;;;1502.10;999.90;;;;;;;25.45;58.52;98444.44;5042628;27;102740;-65
2023/09/16 00:47:40;;;;;;;1721.13;999.90;;;;;;;24.24;63.32;98450.19;5038711;27;103490;-65
2023/09/16 00:50:10;;;;;;;1999.90;999.90;;;;;;;24.48;64.46;98436.09;5039593;27;104190;-65
2023/09/16 00:52:42;;;;;;;1999.90;999.90;;;;;;;24.63;62.64;98439.47;5036576;27;102951;-64
2023/09/16 00:55:13;;;;;;;1880.00;999.90;;;;;;;25.10;61.08;98451.97;5040639;27;103984;-65
2023/09/16 00:57:47;;;;;;;1750.60;999.90;;;;;;;25.48;60.04;98448.63;5041965;27;104160;-65
2023/09/16 01:00:16;;;;;;;1798.82;999.90;;;;;;;24.55;62.31;98446.94;5039886;27;104377;-65
2023/09/16 01:02:44;;;;;;;1960.57;999.90;;;;;;;24.28;64.17;98446.03;5040143;27;102678;-65
2023/09/16 01:05:15;;;;;;;1999.90;999.90;;;;;;;24.93;62.63;98448.03;5042256;27;104101;-65
2023/09/16 01:07:45;;;;;;;1937.90;999.90;;;;;;;24.54;62.38;98454.19;5039034;27;103288;-65
2023/09/16 01:10:15;;;;;;;1999.90;999.90;;;;;;;23.73;66.33;98457.00;5038962;27;103970;-64
2023/09/16 01:12:45;;;;;;;1999.90;999.90;;;;;;;23.58;67.68;98457.97;5040889;27;103354;-65
2023/09/16 01:15:16;;;;;;;1584.28;999.90;;;;;;;24.65;63.06;98453.59;5040034;27;103188;-65
2023/09/16 01:17:50;;;;;;;1709.13;999.90;;;;;;;23.41;69.13;98459.31;5038295;27;104470;-64
2023/09/16 01:20:19;;;;;;;1999.90;999.90;;;;;;;23.55;68.92;98444.88;5040076;27;104200;-65
2023/09/16 01:22:49;;;;;;;1999.90;999.90;;;;;;;23.07;70.16;98449.28;5042029;27;102973;-65
2023/09/16 01:25:18;;;;;;;1999.90;999.90;;;;;;;23.57;69.59;98452.78;5037666;27;104188;-65
2023/09/16 01:27:48;;;;;;;1970.78;999.90;;;;;;;24.89;64.41;98454.06;5038018;27;104180;-65
2023/09/16 01:30:17;;;;;;;1518.45;999.90;;;;;;;24.23;63.53;98449.34;5039264;27;104099;-65
2023/09/16 01:32:50;;;;;;;1999.90;999.90;;;;;;;23.44;68.01;98453.50;5041513;27;102885;-65
2023/09/16 01:35:21;;;;;;;1999.90;999.90;;;;;;;23.90;66.08;98450.22;5044303;27;104358;-65
2023/09/16 01:37:51;;;;;;;1999.90;999.90;;;;;;;23.45;68.15;98444.41;5040805;27;103817;-64
2023/09/16 01:40:24;;;;;;;1999.90;999.90;;;;;;;22.72;72.50;98446.72;5039407;27;103034;-64
2023/09/16 01:42:52;;;;;;;1999.90;999.90;;;;;;;23.15;71.25;98448.34;5039700;27;103175;-65
2023/09/16 01:45:20;;;;;;;1999.90;999.90;;;;;;;23.90;68.05;98444.84;5039362;27;102897;-64
2023/09/16 01:47:49;;;;;;;1999.90;999.90;;;;;;;24.95;63.23;98445.13;5043277;27;104030;-66
2023/09/16 01:50:18;;;;;;;1918.63;999.90;;;;;;;24.92;63.26;98445.53;5042797;27;103047;-65
2023/09/16 01:52:46;;;;;;;1794.97;999.90;;;;;;;24.96;61.21;98449.47;5038360;27;103617;-66
2023/09/16 01:55:13;;;;;;;1999.90;999.90;;;;;;;24.05;65.08;98453.63;5037942;27;103121;-65
2023/09/16 01:57:43;;;;;;;1999.90;999.90;;;;;;;23.57;67.06;98453.63;5036322;27;104322;-66
2023/09/16 02:00:14;;;;;;;1999.90;999.90;;;;;;;23.66;67.07;98457.78;5040097;27;103537;-65
2023/09/16 02:02:42;;;;;;;1999.90;999.90;;;;;;;24.83;62.44;98446.78;5039305;27;102648;-65
2023/09/16 02:05:13;;;;;;;1897.28;999.90;;;;;;;24.84;61.76;98446.59;5043050;27;102709;-65
2023/09/16 02:07:40;;;;;;;1765.72;999.90;;;;;;;25.28;59.35;98448.63;5038448;27;103231;-65
2023/09/16 02:10:10;;;;;;;1816.35;999.90;;;;;;;24.67;61.05;98451.50;5039688;27;104624;-65
2023/09/16 02:12:37;;;;;;;1964.93;999.90;;;;;;;23.55;65.05;98455.66;5039104;27;102955;-65
2023/09/16 02:15:10;;;;;;;1999.90;999.90;;;;;;;24.40;63.47;98455.19;5038035;27;102791;-65
2023/09/16 02:17:38;;;;;;;1836.07;999.90;;;;;;;24.87;60.84;98461.56;5037124;27;103620;-65
2023/09/16 02:20:10;;;;;;;1922.22;999.90;;;;;;;24.17;62.55;98466.34;5039519;27;104181;-65
2023/09/16 02:22:38;;;;;;;1999.90;999.90;;;;;;;23.92;64.50;98467.03;5038865;27;103105;-65
2023/09/16 02:25:07;;;;;;;1999.90;999.90;;;;;;;23.51;65.07;98475.97;5037608;27;103749;-65
2023/09/16 02:27:35;;;;;;;1999.90;999.90;;;;;;;24.04;62.92;98466.28;5040028;27;103271;-65
2023/09/16 02:30:06;;;;;;;1905.40;999.90;;;;;;;24.17;61.39;98471.75;5040997;27;103170;-65
2023/09/16 02:32:38;;;;;;;1967.55;999.90;;;;;;;24.41;61.73;98473.06;5038662;27;103038;-65
2023/09/16 02:35:07;;;;;;;1933.88;999.90;;;;;;;24.59;61.13;98467.91;5037383;27;102984;-65
2023/09/16 02:37:35;;;;;;;1802.90;999.90;;;;;;;24.79;59.92;98474.22;5039742;27;104294;-65
2023/09/16 02:40:03;;;;;;;1911.53;999.90;;;;;;;24.69;60.30;98481.88;5039243;27;103735;-66
2023/09/16 02:42:34;;;;;;;1999.90;999.90;;;;;;;23.90;64.36;98485.31;5041465;27;102886;-65
2023/09/16 02:45:05;;;;;;;1999.90;999.90;;;;;;;24.16;64.13;98482.75;5040294;27;103933;-65
2023/09/16 02:47:33;;;;;;;1999.90;999.90;;;;;;;24.18;63.13;98484.22;5035986;27;104289;-65
2023/09/16 02:50:05;;;;;;;1999.90;999.90;;;;;;;23.60;65.27;98482.88;5041523;27;105391;-64
2023/09/16 02:52:33;;;;;;;1999.90;999.90;;;;;;;23.46;66.23;98478.44;5039582;27;102750;-64
2023/09/16 02:55:01;;;;;;;1999.90;999.90;;;;;;;22.85;68.50;98479.97;5039028;27;103884;-65
2023/09/16 02:57:29;;;;;;;1999.90;999.90;;;;;;;23.22;67.91;98476.13;5038295;27;103556;-65
2023/09/16 02:59:57;;;;;;;1999.90;999.90;;;;;;;23.14;68.57;98478.16;5039163;27;104107;-65
2023/09/16 03:02:30;;;;;;;1999.90;999.90;;;;;;;22.77;71.02;98480.13;5038764;27;102749;-64
2023/09/16 03:04:58;;;;;;;1999.90;999.90;;;;;;;22.30;73.92;98475.28;5053268;27;104031;-66
2023/09/16 03:07:27;;;;;;;1999.90;999.90;;;;;;;23.16;72.24;98476.13;5042128;27;105447;-65
2023/09/16 03:09:56;;;;;;;1999.90;999.90;;;;;;;23.02;72.02;98475.16;5037310;27;105142;-65
2023/09/16 03:12:27;;;;;;;1999.90;999.90;;;;;;;22.87;73.00;98477.94;5039622;27;103054;-65
2023/09/16 03:14:57;;;;;;;1999.90;999.90;;;;;;;23.21;71.11;98468.28;5039387;27;102716;-65
2023/09/16 03:17:26;;;;;;;1999.90;999.90;;;;;;;23.44;71.77;98472.38;5038107;27;104155;-65
2023/09/16 03:19:54;;;;;;;1999.90;999.90;;;;;;;23.35;71.02;98470.88;5049687;27;104678;-65
2023/09/16 03:22:22;;;;;;;1999.90;999.90;;;;;;;23.34;70.98;98469.19;5036815;27;102729;-65
2023/09/16 03:24:54;;;;;;;1999.90;999.90;;;;;;;22.87;73.47;98471.72;5036785;27;102944;-65
2023/09/16 03:27:23;;;;;;;1999.90;999.90;;;;;;;22.92;73.91;98461.19;5039223;27;105388;-64
2023/09/16 03:29:51;;;;;;;1999.90;999.90;;;;;;;22.39;76.13;98460.69;5033497;27;104096;-64
2023/09/16 03:32:19;;;;;;;1999.90;999.90;;;;;;;22.74;75.40;98458.13;5038884;27;102842;-65
2023/09/16 03:34:47;;;;;;;1999.90;999.90;;;;;;;22.39;75.57;98463.38;5038121;27;102989;-65
2023/09/16 03:37:17;;;;;;;1999.90;999.90;;;;;;;22.09;77.39;98464.44;5036249;27;104233;-64
2023/09/16 03:39:45;;;;;;;1999.90;999.90;;;;;;;21.17;82.04;98460.50;5032480;27;105408;-65
2023/09/16 03:42:14;;;;;;;1999.90;999.90;;;;;;;21.63;80.30;98466.53;5038502;27;103633;-65
2023/09/16 03:44:43;;;;;;;1999.90;999.90;;;;;;;22.05;78.50;98459.66;5037888;27;103780;-65
2023/09/16 03:47:12;;;;;;;1999.90;999.90;;;;;;;22.00;78.00;98456.69;5037849;27;103503;-65
2023/09/16 03:49:42;;;;;;;1999.90;999.90;;;;;;;21.47;80.46;98452.47;5036995;27;104200;-65
2023/09/16 03:52:10;;;;;;;1804.28;930.58;;;;;;;21.51;80.32;98456.44;5038570;27;102674;-64
2023/09/16 03:54:40;;;;;;;1594.40;975.47;;;;;;;21.68;78.89;98456.06;5038778;27;104253;-65
2023/09/16 03:57:08;;;;;;;1375.90;979.28;;;;;;;21.38;81.91;98457.09;5037668;27;104045;-65
2023/09/16 03:59:38;;;;;;;1299.50;999.90;;;;;;;22.49;76.38;98449.56;5035067;27;103339;-65
2023/09/16 04:02:07;;;;;;;1440.00;999.90;;;;;;;22.07;76.67;98455.75;5036177;27;102969;-64
2023/09/16 04:04:35;;;;;;;1400.07;999.90;;;;;;;21.03;82.02;98453.22;5038016;27;104686;-65
2023/09/16 04:07:03;;;;;;;1358.90;999.90;;;;;;;21.46;79.85;98440.03;5037475;27;103251;-65
2023/09/16 04:09:31;;;;;;;1517.13;999.90;;;;;;;21.22;80.30;98441.97;5040320;27;104222;-65
2023/09/16 04:11:59;;;;;;;1608.47;999.90;;;;;;;20.89;82.39;98435.22;5036337;27;102672;-66
2023/09/16 04:14:29;;;;;;;1624.45;999.90;;;;;;;21.31;79.63;98431.97;5033266;27;102822;-64
2023/09/16 04:16:59;;;;;;;1614.85;999.90;;;;;;;21.65;80.06;98436.78;5035698;27;103456;-63
2023/09/16 04:19:29;;;;;;;1486.80;999.90;;;;;;;22.30;76.47;98434.06;5032334;27;103144;-62
2023/09/16 04:21:57;;;;;;;1639.63;999.90;;;;;;;22.38;74.35;98429.41;5036049;27;102688;-63
2023/09/16 04:24:25;;;;;;;1830.25;999.90;;;;;;;22.97;71.97;98429.13;5035872;27;104401;-63
2023/09/16 04:26:54;;;;;;;1976.72;999.90;;;;;;;22.51;72.50;98442.97;5030700;27;103262;-62
2023/09/16 04:29:22;;;;;;;1999.90;999.90;;;;;;;22.80;71.71;98454.66;5031972;27;103278;-63
2023/09/16 04:31:51;;;;;;;1999.90;999.90;;;;;;;23.09;70.55;98443.72;5034907;27;102763;-63
2023/09/16 04:34:23;;;;;;;1999.90;999.90;;;;;;;22.22;73.52;98445.78;5052650;27;104111;-63
2023/09/16 04:36:54;;;;;;;1999.90;999.90;;;;;;;21.86;74.53;98444.94;5030278;27;104462;-61
2023/09/16 04:39:23;;;;;;;1999.90;999.90;;;;;;;21.58;75.92;98441.25;5029811;27;104185;-61
2023/09/16 04:41:53;;;;;;;1999.90;999.90;;;;;;;21.84;75.26;98433.50;5032174;27;102832;-61
2023/09/16 04:44:22;;;;;;;1999.90;999.90;;;;;;;21.57;77.14;98431.50;5034734;27;102802;-61
2023/09/16 04:46:53;;;;;;;1999.90;999.90;;;;;;;22.85;73.45;98441.47;5031241;27;105466;-60
2023/09/16 04:49:25;;;;;;;1999.90;999.90;;;;;;;22.85;71.27;98436.09;5028239;27;105898;-61
2023/09/16 04:51:53;;;;;;;1999.90;999.90;;;;;;;22.25;73.98;98434.66;5030299;27;103085;-61
2023/09/16 04:54:23;;;;;;;1999.90;999.90;;;;;;;21.56;76.90;98435.22;5034457;27;103766;-61
2023/09/16 04:56:51;;;;;;;1999.90;999.90;;;;;;;21.28;78.52;98430.50;5032988;27;103586;-61
2023/09/16 04:59:20;;;;;;;1999.90;999.90;;;;;;;20.74;81.77;98431.69;5031983;27;103705;-60
2023/09/16 05:01:51;;;;;;;1999.90;999.90;;;;;;;20.84;81.51;98429.56;5031642;27;103161;-60
2023/09/16 05:04:19;;;;;;;1999.90;999.90;;;;;;;21.43;80.30;98418.91;5032009;27;104233;-60
2023/09/16 05:06:49;;;;;;;1842.53;999.90;;;;;;;21.86;77.08;98424.25;5035257;27;104293;-60
2023/09/16 05:09:17;;;;;;;1702.43;999.90;;;;;;;22.29;75.13;98429.69;5035240;27;103207;-61
2023/09/16 05:11:45;;;;;;;1733.77;999.90;;;;;;;23.38;71.28;98421.97;5023716;27;103324;-61
2023/09/16 05:14:13;;;;;;;1756.68;999.90;;;;;;;23.75;68.63;98428.78;5051101;27;103053;-60
2023/09/16 05:16:42;;;;;;;1597.25;999.90;;;;;;;23.32;67.43;98420.06;5034389;27;104216;-60
2023/09/16 05:19:11;;;;;;;1588.88;999.90;;;;;;;23.14;67.00;98421.56;5024453;27;103177;-61
2023/09/16 05:21:39;;;;;;;1631.72;999.90;;;;;;;23.01;66.73;98419.63;5034709;27;103087;-60
2023/09/16 05:24:09;;;;;;;1676.57;999.90;;;;;;;23.35;66.76;98422.34;5029051;27;103384;-61
2023/09/16 05:26:37;;;;;;;1732.75;999.90;;;;;;;23.48;66.25;98427.84;5035478;27;103244;-61
2023/09/16 05:29:06;;;;;;;1718.15;999.90;;;;;;;24.01;64.85;98411.88;5033067;27;104465;-61
2023/09/16 05:31:35;;;;;;;1652.95;999.90;;;;;;;24.00;64.42;98416.44;5037889;27;102917;-63
2023/09/16 05:34:06;;;;;;;1425.18;999.90;;;;;;;23.94;64.71;98411.88;5029722;27;104317;-63
2023/09/16 05:36:34;;;;;;;1417.15;999.90;;;;;;;24.46;62.87;98416.59;5031515;27;103381;-63
2023/09/16 05:39:05;;;;;;;1379.60;999.90;;;;;;;24.60;61.85;98412.88;5028747;27;105717;-63
2023/09/16 05:41:35;;;;;;;1391.93;999.90;;;;;;;24.41;63.18;98408.28;5032171;27;102749;-63
2023/09/16 05:44:04;;;;;;;1404.15;999.90;;;;;;;23.26;66.88;98423.53;5033168;27;103098;-60
2023/09/16 05:46:32;;;;;;;1611.95;999.90;;;;;;;23.94;67.39;98416.44;5035590;27;103354;-60
2023/09/16 05:49:07;;;;;;;1516.13;999.90;;;;;;;24.38;64.81;98416.78;5037864;27;104526;-63
2023/09/16 05:51:36;;;;;;;1405.40;999.90;;;;;;;24.77;64.85;98421.41;5036313;27;103051;-62
2023/09/16 05:54:05;;;;;;;1383.50;999.90;;;;;;;24.83;64.06;98422.47;5037818;27;103158;-62
2023/09/16 05:56:37;;;;;;;1375.68;999.90;;;;;;;25.15;63.81;98421.63;5038190;27;104090;-62
2023/09/16 05:59:06;;;;;;;1338.55;999.90;;;;;;;25.43;62.31;98424.06;5034800;27;104837;-62
2023/09/16 06:01:34;;;;;;;1320.10;999.90;;;;;;;25.12;62.30;98427.44;5052056;27;102751;-63
2023/09/16 06:04:03;;;;;;;1325.95;999.90;;;;;;;25.26;63.87;98426.41;5026496;27;103456;-62
2023/09/16 06:06:31;;;;;;;1307.18;999.90;;;;;;;25.59;62.40;98413.66;5036565;27;103976;-63
2023/09/16 06:08:59;;;;;;;1296.95;999.90;;;;;;;25.79;60.83;98419.00;5038048;27;103377;-62
2023/09/16 06:11:28;;;;;;;1287.63;999.90;;;;;;;25.98;60.19;98419.94;5037047;27;103135;-62
2023/09/16 06:14:00;;;;;;;1282.80;999.90;;;;;;;25.32;63.85;98422.81;5039426;27;104122;-60
2023/09/16 06:16:28;;;;;;;1271.05;999.90;;;;;;;26.02;61.24;98424.69;5049165;27;103809;-64
2023/09/16 06:18:56;;;;;;;1275.47;999.90;;;;;;;26.22;59.76;98419.22;5036564;27;103238;-64
2023/09/16 06:21:24;;;;;;;1246.78;999.90;;;;;;;26.41;59.19;98418.28;5034183;27;103091;-63
2023/09/16 06:23:55;;;;;;;1241.13;999.90;;;;;;;25.45;62.94;98427.38;5038109;27;103037;-63
2023/09/16 06:26:23;;;;;;;1263.88;999.90;;;;;;;26.23;60.48;98431.72;5039425;27;105521;-64
2023/09/16 06:28:52;;;;;;;1259.38;999.90;;;;;;;26.52;59.62;98427.59;5040077;27;103214;-63
2023/09/16 06:31:23;;;;;;;1246.43;999.90;;;;;;;26.74;58.57;98432.44;5042257;27;103049;-64
2023/09/16 06:33:52;;;;;;;1273.72;999.90;;;;;;;26.64;59.34;98431.28;5039622;27;104046;-64
2023/09/16 06:36:20;;;;;;;1272.80;999.90;;;;;;;26.07;62.50;98424.06;5038608;27;103068;-64
2023/09/16 06:38:48;;;;;;;1275.23;999.90;;;;;;;26.27;61.58;98432.97;5041807;27;103424;-64
2023/09/16 06:41:17;;;;;;;1276.45;999.90;;;;;;;26.79;59.68;98432.63;5033525;27;102731;-63
2023/09/16 06:43:44;;;;;;;1252.27;999.90;;;;;;;26.27;61.26;98433.78;5037470;27;104292;-63
2023/09/16 06:46:18;;;;;;;1276.03;999.90;;;;;;;26.98;58.38;98431.63;5033971;27;105293;-63
2023/09/16 06:48:48;;;;;;;1271.72;999.90;;;;;;;26.66;59.47;98427.28;5038994;27;103350;-63
2023/09/16 06:51:16;;;;;;;1258.63;999.90;;;;;;;26.90;59.08;98428.38;5038541;27;102904;-63
2023/09/16 06:53:44;;;;;;;1255.28;999.90;;;;;;;26.52;60.12;98425.72;5039973;27;103925;-63
2023/09/16 06:56:12;;;;;;;1267.60;999.90;;;;;;;27.15;59.32;98425.63;5041796;27;104267;-63
2023/09/16 06:58:40;;;;;;;1252.13;999.90;;;;;;;26.21;61.92;98433.81;5038897;27;103302;-64
2023/09/16 07:01:09;;;;;;;1260.22;999.90;;;;;;;26.83;61.06;98424.91;5041059;27;102762;-63
2023/09/16 07:03:39;;;;;;;1260.28;999.90;;;;;;;27.44;58.35;98423.09;5043190;27;102799;-63
2023/09/16 07:06:12;;;;;;;1258.55;999.90;;;;;;;27.36;58.57;98422.53;5044582;27;103467;-63
2023/09/16 07:08:40;;;;;;;1260.38;999.90;;;;;;;27.66;57.13;98428.91;5043312;27;104186;-64
2023/09/16 07:11:11;;;;;;;1232.37;999.90;;;;;;;27.93;56.40;98430.25;5046115;27;102850;-63
2023/09/16 07:13:47;;;;;;;1220.32;999.90;;;;;;;28.31;55.42;98431.88;5053833;27;102792;-64
2023/09/16 07:16:19;;;;;;;1206.72;999.90;;;;;;;28.00;55.97;98431.00;5039356;27;104319;-63
2023/09/16 07:18:47;;;;;;;1221.60;999.90;;;;;;;28.17;55.72;98429.34;5041390;27;103263;-63
2023/09/16 07:21:22;;;;;;;1191.15;999.90;;;;;;;28.65;54.65;98429.31;5042889;27;102660;-63
2023/09/16 07:23:50;;;;;;;1171.20;999.90;;;;;;;28.43;54.85;98430.03;5055059;27;103026;-63
2023/09/16 07:26:23;;;;;;;1141.57;999.90;;;;;;;28.18;55.09;98430.97;5042352;27;104084;-63
2023/09/16 07:28:52;;;;;;;1119.27;999.90;;;;;;;28.49;54.40;98426.41;5041412;27;103266;-63
2023/09/16 07:31:20;;;;;;;1072.47;999.90;;;;;;;29.21;52.56;98417.91;5041929;27;102614;-66
2023/09/16 07:33:50;;;;;;;1061.78;992.83;;;;;;;29.21;52.89;98420.63;5042779;27;103895;-63
2023/09/16 07:36:22;;;;;;;1020.30;954.55;;;;;;;29.63;52.29;98423.22;5040183;27;103473;-63
2023/09/16 07:38:52;;;;;;;1032.90;966.03;;;;;;;30.99;49.68;98415.03;5044767;27;103248;-63
2023/09/16 07:41:24;;;;;;;960.50;901.10;;;;;;;30.78;48.70;98415.72;5042711;27;103049;-63
2023/09/16 07:43:52;;;;;;;999.63;936.15;;;;;;;31.00;48.27;98422.13;5042292;27;103226;-63
2023/09/16 07:46:20;;;;;;;937.72;879.83;;;;;;;31.42;47.36;98412.41;5037032;27;104061;-63
2023/09/16 07:48:48;;;;;;;905.20;851.63;;;;;;;31.13;47.08;98423.72;5044217;27;103219;-63
2023/09/16 07:51:17;;;;;;;1005.95;940.30;;;;;;;31.55;48.39;98414.81;5039492;27;102928;-63
2023/09/16 07:53:49;;;;;;;931.22;873.88;;;;;;;31.67;46.54;98422.06;5044510;27;102617;-63
2023/09/16 07:56:18;;;;;;;910.45;856.65;;;;;;;31.57;46.40;98425.50;5039774;27;103581;-63
2023/09/16 07:58:47;;;;;;;904.15;851.08;;;;;;;31.00;48.64;98427.59;5044320;27;103195;-63
2023/09/16 08:01:18;;;;;;;839.97;792.60;;;;;;;32.82;45.31;98424.50;5041705;27;102651;-63
2023/09/16 08:03:46;;;;;;;843.90;797.17;;;;;;;33.73;42.82;98428.78;5046182;27;102764;-63
2023/09/16 08:06:15;;;;;;;813.17;769.00;;;;;;;34.27;42.75;98423.84;5039845;27;103247;-60
2023/09/16 08:08:44;;;;;;;741.97;707.03;;;;;;;34.69;41.34;98429.16;5032496;27;103198;-60
2023/09/16 08:11:19;;;;;;;689.08;657.58;;;;;;;34.81;40.24;98437.94;5036705;27;102725;-62
2023/09/16 08:13:58;;;;;;;688.15;656.88;;;;;;;34.72;40.78;98436.84;5038498;27;102665;-62
2023/09/16 08:16:29;;;;;;;612.05;585.33;;;;;;;34.89;40.32;98440.97;5037731;27;104409;-61
2023/09/16 08:18:59;;;;;;;654.17;625.40;;;;;;;34.51;41.02;98432.38;5039398;27;104173;-61
2023/09/16 08:21:30;;;;;;;495.37;475.40;;;;;;;35.26;39.54;98428.91;5038074;27;103177;-62
2023/09/16 08:23:58;;;;;;;304.85;293.15;;;;;;;36.04;38.42;98430.16;5040318;27;103326;-61
2023/09/16 08:26:35;;;;;;;201.07;192.97;;;;;;;36.08;38.39;98435.88;5037126;27;103327;-62
2023/09/16 08:29:05;;;;;;;220.05;210.98;;;;;;;36.28;37.92;98435.81;5038350;27;103296;-61
2023/09/16 08:31:34;;;;;;;391.27;376.27;;;;;;;33.67;41.79;98444.38;5035709;27;103901;-62
2023/09/16 08:34:05;;;;;;;158.13;151.80;;;;;;;36.28;38.55;98446.78;5038352;27;104111;-61
2023/09/16 08:36:35;;;;;;;174.27;167.33;;;;;;;37.05;37.65;98446.91;5037883;27;104170;-62
2023/09/16 08:39:03;;;;;;;160.55;154.23;;;;;;;37.13;36.63;98449.03;5039671;27;104048;-62
2023/09/16 08:41:42;;;;;;;155.20;149.07;;;;;;;37.43;36.81;98447.13;5040374;27;102604;-61
2023/09/16 08:44:15;;;;;;;166.98;160.45;;;;;;;37.23;36.56;98447.28;5037382;27;103639;-61
2023/09/16 08:46:51;;;;;;;135.77;130.40;;;;;;;37.29;36.55;98446.97;5035001;27;103263;-61
2023/09/16 08:49:23;;;;;;;114.77;110.17;;;;;;;36.55;37.07;98449.97;5039187;27;103240;-61
2023/09/16 08:51:59;;;;;;;80.80;77.30;;;;;;;36.92;36.86;98453.03;5036840;27;102983;-61
2023/09/16 08:54:35;;;;;;;174.13;167.32;;;;;;;37.79;35.49;98451.16;5038470;27;105149;-62
2023/09/16 08:57:05;;;;;;;87.90;84.28;;;;;;;36.21;37.91;98455.38;5035878;27;104020;-61
2023/09/16 08:59:36;;;;;;;152.63;146.50;;;;;;;37.46;36.13;98457.56;5038578;27;102829;-61
2023/09/16 09:02:04;;;;;;;73.33;70.10;;;;;;;37.40;36.18;98450.44;5040057;27;102801;-61
2023/09/16 09:04:34;;;;;;;88.97;85.30;;;;;;;35.64;37.66;98457.72;5039762;27;104405;-62
2023/09/16 09:07:03;;;;;;;91.05;87.30;;;;;;;37.87;36.13;98456.03;5040628;27;103949;-61
2023/09/16 09:09:31;;;;;;;132.85;127.63;;;;;;;37.94;35.03;98451.03;5038321;27;104193;-61
2023/09/16 09:12:07;;;;;;;126.83;121.70;;;;;;;37.80;34.67;98452.81;5039515;27;102968;-61
2023/09/16 09:14:37;;;;;;;65.25;62.40;;;;;;;36.71;37.34;98454.28;5042688;27;102734;-61
2023/09/16 09:17:08;;;;;;;105.47;101.30;;;;;;;37.55;35.84;98440.13;5039071;27;103320;-62
2023/09/16 09:19:39;;;;;;;119.77;114.97;;;;;;;38.82;33.69;98448.47;5037044;27;103182;-61
2023/09/16 09:22:10;;;;;;;132.50;127.13;;;;;;;38.93;33.53;98448.34;5039925;27;102954;-61
2023/09/16 09:24:38;;;;;;;90.35;86.68;;;;;;;38.29;33.92;98436.78;5038617;27;104046;-62
2023/09/16 09:27:06;;;;;;;103.30;99.00;;;;;;;35.94;37.59;98436.47;5038091;27;104051;-62
2023/09/16 09:29:38;;;;;;;79.00;75.70;;;;;;;37.39;35.81;98424.81;5038440;27;103396;-62
2023/09/16 09:32:08;;;;;;;75.80;72.53;;;;;;;37.96;35.67;98435.00;5043022;27;103022;-61
2023/09/16 09:34:40;;;;;;;109.50;105.10;;;;;;;39.17;33.88;98430.53;5037986;27;103849;-61
2023/09/16 09:37:16;;;;;;;91.80;88.13;;;;;;;38.91;33.71;98429.28;5033125;27;103766;-61
2023/09/16 09:39:45;;;;;;;85.05;81.45;;;;;;;38.50;33.69;98433.78;5039875;27;103187;-61
2023/09/16 09:42:23;;;;;;;90.80;87.13;;;;;;;38.96;33.41;98432.00;5042551;27;102909;-62
2023/09/16 09:45:01;;;;;;;149.00;143.20;;;;;;;36.93;37.30;98442.84;5041758;27;102714;-62
2023/09/16 09:47:34;;;;;;;65.60;62.78;;;;;;;38.11;35.18;98434.00;5036687;27;104205;-61
2023/09/16 09:50:07;;;;;;;69.60;66.60;;;;;;;39.11;33.34;98433.66;5039717;27;104416;-62
2023/09/16 09:52:35;;;;;;;85.10;81.65;;;;;;;39.35;33.80;98434.41;5045561;27;102875;-61
2023/09/16 09:55:05;;;;;;;80.35;76.97;;;;;;;34.93;38.62;98436.59;5041526;27;104270;-59
2023/09/16 09:57:34;;;;;;;112.05;107.63;;;;;;;36.48;38.38;98433.75;5041598;27;104123;-61
2023/09/16 10:00:08;;;;;;;67.20;64.20;;;;;;;37.04;36.84;98434.25;5038518;27;103352;-61
2023/09/16 10:02:40;;;;;;;67.20;64.40;;;;;;;38.35;35.28;98442.28;5035854;27;103050;-60
2023/09/16 10:05:13;;;;;;;68.90;66.00;;;;;;;38.81;34.29;98435.00;5034928;27;104989;-61
2023/09/16 10:07:42;;;;;;;66.35;63.35;;;;;;;38.48;34.78;98430.50;5042204;27;103811;-61
2023/09/16 10:10:15;;;;;;;67.83;64.93;;;;;;;39.08;33.91;98432.31;5039845;27;104174;-61
2023/09/16 10:12:45;;;;;;;46.70;44.65;;;;;;;37.89;35.13;98411.69;5038028;27;103044;-60
2023/09/16 10:15:14;;;;;;;90.90;87.20;;;;;;;35.99;38.42;98425.44;5039250;27;104994;-60
2023/09/16 10:17:44;;;;;;;47.95;45.70;;;;;;;37.35;36.07;98414.69;5041843;27;103133;-60
2023/09/16 10:20:16;;;;;;;64.20;61.55;;;;;;;38.34;34.57;98421.31;5054388;27;103879;-60
2023/09/16 10:22:45;;;;;;;62.40;59.78;;;;;;;38.24;34.43;98414.78;5039123;27;103703;-61
2023/09/16 10:25:13;;;;;;;47.33;45.33;;;;;;;38.61;33.61;98421.47;5039548;27;103978;-61
2023/09/16 10:27:57;;;;;;;52.58;50.25;;;;;;;38.41;33.64;98419.00;5041582;27;103824;-61
2023/09/16 10:30:37;;;;;;;22.17;21.17;;;;;;;38.72;32.61;98414.66;5039324;27;103489;-62
2023/09/16 10:33:07;;;;;;;25.88;24.67;;;;;;;38.51;32.59;98413.34;5042129;27;102757;-62
2023/09/16 10:35:38;;;;;;;30.38;29.00;;;;;;;38.42;32.91;98415.97;5040757;27;102884;-62
2023/09/16 10:38:08;;;;;;;21.30;20.40;;;;;;;38.85;31.92;98413.97;5028917;27;103288;-62
2023/09/16 10:40:37;;;;;;;26.98;25.77;;;;;;;38.68;33.06;98408.91;5036030;27;103594;-63
2023/09/16 10:43:13;;;;;;;29.25;28.00;;;;;;;38.53;33.09;98406.41;5036650;27;103128;-61
2023/09/16 10:45:43;;;;;;;22.02;21.02;;;;;;;38.40;32.39;98406.34;5037613;27;102863;-62
2023/09/16 10:48:14;;;;;;;28.77;27.38;;;;;;;38.12;32.87;98403.34;5034864;27;103961;-62
2023/09/16 10:50:47;;;;;;;27.38;26.17;;;;;;;39.42;31.51;98408.00;5037848;27;103209;-62
2023/09/16 10:53:19;;;;;;;30.73;28.60;;;;;;;38.66;31.88;98410.34;5042546;27;102902;-61
2023/09/16 10:55:59;;;;;;;35.80;34.10;;;;;;;38.03;33.09;98412.59;5037964;27;103254;-61
2023/09/16 10:58:37;;;;;;;42.95;41.10;;;;;;;38.13;33.57;98407.78;5039401;27;103253;-61
2023/09/16 11:01:08;;;;;;;26.85;25.70;;;;;;;39.25;31.34;98407.75;5040200;27;103066;-62
2023/09/16 11:03:40;;;;;;;24.00;22.90;;;;;;;39.11;30.98;98395.81;5037652;27;102882;-62